Terminal Aerodrome Forecast
Issued by NWS

Home | Current Version | Previous Version | Text Only | Print | Product List | Glossary On
Versions: 1 2 3 4 5 6 7 8 9 10 11 12 13 14 15 16 17 18
000
FTUS43 KEAX 032000 AAA
TAFSTJ
TAF AMD
KSTJ 032005Z 0320/0418 33010G20KT P6SM BKN025
      TEMPO 0321/0324 SCT025 BKN035
     FM040000 35012KT P6SM BKN025
     FM040900 36013KT P6SM SCT025 BKN070=

USA.gov is the U.S. government's official web portal to all federal, state and local government web resources and services.